Pinewood, Minnesota
Current Conditions -  °F | °C
As of 4:32 AM on Friday 21 Nov 2014 (Local Time) from KBJI Reporting Station
Clear Clear  
Wind Chill: -7°   Ceiling: Unl
Heat Index: 10°   Visibility: 10mi
Dew Point:   Wind: 14mph
Humidity: 70%   Direction: 180°S
Pressure: 29.98"   Gusts: 17mph
Location:  47.4609°N, 95.2384°W
Report Text: KBJI 211032Z AUTO 18012G15KT 10SM CLR M12/M17 A2998 RMK AO2 T11251169
Loading
Personal Weather Stations






























Interactive Weather Map New forecast layout! Learn more

10-Day Weather Forecast

Advertisements
Track Severe Weather on mobile